Share

Glens Fork, KY

10:02 AM CDT on April 23, 2014 (GMT -0500)
KKYCOLUM2 Elev 1033 ft | 37.03 °N, 85.39 °W | Change Station

Current weather conditions updated 0 second ago

Clear
Clear
54.7 °F
Feels Like 54.7 °F
N
4.0
Wind Variable Wind from WNW
Gusts 14.0 mph
Sunrise 5:56 AM
Sunset 7:23 PM
Moon Waning Crescent

Today is forecast to be Much Cooler than yesterday.

Pressure 30.10 in
Visibility 10.0 miles
Clouds Clear
Dew Point 34 °F
Humidity 46%
Rainfall 0.00 in
Snow Depth Not available.
UV 4.9 out of 16
Pollen 9.30 out of 12
Air Quality Not available.
Flu Activity Sporadic
METAR KSME 231455Z AUTO 03006KT 10SM CLR 11/00 A3010 RMK AO2

More Conditions Fewer Conditions

Pressure 30.10 in
Visibility 10.0 miles
Clouds Clear
Dew Point 34 °F
Humidity 46%
Rainfall 0.00 in
Snow Depth Not available.
UV 4.9 out of 16
Pollen 9.30 out of 12
Air Quality Not available.
Flu Activity Sporadic
METAR KSME 231455Z AUTO 03006KT 10SM CLR 11/00 A3010 RMK AO2

More Conditions Fewer Conditions

10-Day Weather Forecast

Almanac

Astronomy

Apr. 23, 2014 Rise Set
Actual Time 5:56 AM CDT 7:23 PM CDT
Civil Twilight 5:28 AM CDT 7:50 PM CDT
Nautical Twilight 4:56 AM CDT 8:23 PM CDT
Astronomical Twilight 4:21 AM CDT 8:58 PM CDT
Moon 2:18 AM CDT 1:38 PM CDT
Length of Visible Light 14h 21m
Length of Day
13h 26m
Tomorrow will be 2m 10s longer.
Waning Crescent, 35% of the Moon is Illuminated
Today
Waning Crescent
Apr 29
New
May 6
First Quarter
May 14
Full
May 21
Last Quarter

Today's Extremes

State Highs State Lows

Community

  • spring flowers
    spring flowers
  • Earth Day Spectrum Ove' Blue
    Earth Day Spectrum Ove' Blue
  • BARN B&W
    BARN B&W
  • April Sunset
    April Sunset
  • Waiting..
    Waiting..

WunderPhotos

Upload Photos

1,704,303 photos uploaded!

Nearby

Snow Depth

Station Depth Elevation
No new snow has been reported.

Coastal Water Temperatures

Place Temperature
No Stations Reporting

Earthquake Activity

City Distance Mag. Time & Date
No recent earthquake activity has been reported nearby.
Minimum magnitude displayed is 2.5.

Nearby Weather Stations

Station Location Temp. Dew Point Humidity Wind Precip. Elev Updated Type
Columbia, KY 54.7 °F 34 °F 46% WNW  at  4.0 mph 0.00 in / hr 1033 ft 10:02 AM CDT Rapid Fire
FOX, JAMESTOWN, KY 56.8 °F 30 °F 36% NNW  at  5.4 mph 0.00 in / hr 951 ft 10:02 AM CDT Rapid Fire
Balcony Bend, Jamestown, KY 60.4 °F 34 °F 37% NE  at  0.0 mph 0.00 in / hr 817 ft 10:00 AM CDT Normal
Redman Avenue, Campbellsville, KY 53.2 °F 34 °F 47% NW  at  3.0 mph 0.00 in / hr 837 ft 11:02 AM EDT Rapid Fire
RAWS ALPINE KY, Burkesville, KY 54 °F 31 °F 42% North  at  0 mph 0.00 in / hr 853 ft 9:15 AM CDT MADIS
Clay Hill Memorial Forest, Campbellsville, KY 50.7 °F 34 °F 52% NNW  at  2.9 mph 0.00 in / hr 955 ft 10:22 AM EDT Normal

Show More Stations Show Fewer Stations

What do you think?

We're not finished. Please let us know what you like, what you don't like, and what you are still missing.